Time;durP1;ratioP1;P1;durP2;ratioP2;P2;SDS_P1;SDS_P2;PMS_P1;PMS_P2;Temp;Humidity;BMP_temperature;BMP_pressure;BME280_temperature;BME280_humidity;BME280_pressure;Samples;Min_cycle;Max_cycle;Signal;HPM_P1;HPM_P2
2021/05/14 00:02:18;;;;;;;1.60;1.30;;;;;;;8.21;100.00;97132.88;5004406;28;20245;-69
2021/05/14 00:04:45;;;;;;;1.53;1.53;;;;;;;8.15;100.00;97132.75;5002939;28;20205;-69
2021/05/14 00:07:13;;;;;;;1.77;1.67;;;;;;;8.13;100.00;97142.63;5004452;28;20213;-66
2021/05/14 00:09:42;;;;;;;1.43;1.43;;;;;;;8.10;100.00;97130.63;5004284;28;20648;-67
2021/05/14 00:12:11;;;;;;;1.87;1.60;;;;;;;8.14;100.00;97131.91;5004654;28;20229;-67
2021/05/14 00:14:39;;;;;;;1.50;1.50;;;;;;;8.19;100.00;97131.44;5004327;28;20673;-68
2021/05/14 00:17:06;;;;;;;1.60;1.60;;;;;;;8.06;100.00;97124.84;5003985;28;20692;-69
2021/05/14 00:19:34;;;;;;;1.80;1.70;;;;;;;8.08;100.00;97129.97;5004064;28;20232;-69
2021/05/14 00:22:02;;;;;;;1.67;1.67;;;;;;;8.09;100.00;97132.41;5004970;28;20239;-68
2021/05/14 00:24:29;;;;;;;1.77;1.77;;;;;;;8.09;100.00;97132.41;5001678;28;20208;-68
2021/05/14 00:26:57;;;;;;;1.63;1.30;;;;;;;8.08;100.00;97137.88;5003168;28;20212;-70
2021/05/14 00:29:25;;;;;;;1.40;1.40;;;;;;;8.09;100.00;97132.41;5003126;28;20209;-69
2021/05/14 00:31:53;;;;;;;1.40;1.40;;;;;;;8.01;100.00;97132.44;5003078;28;20239;-69
2021/05/14 00:34:21;;;;;;;2.50;1.40;;;;;;;8.05;100.00;97136.38;4996940;28;20201;-69
2021/05/14 00:36:49;;;;;;;1.30;1.30;;;;;;;8.05;100.00;97130.31;5002456;28;20235;-67
2021/05/14 00:39:16;;;;;;;1.67;1.57;;;;;;;8.03;100.00;97134.94;5003704;28;20231;-68
2021/05/14 00:41:44;;;;;;;1.90;1.10;;;;;;;8.04;100.00;97134.75;5004035;28;20473;-68
2021/05/14 00:44:26;;;;;;;1.40;1.40;;;;;;;7.99;100.00;97133.63;5004653;28;20213;-68
2021/05/14 00:46:53;;;;;;;1.80;1.70;;;;;;;7.94;100.00;97134.13;5003689;28;20205;-67
2021/05/14 00:49:21;;;;;;;1.33;1.33;;;;;;;7.93;100.00;97135.09;5003540;28;20759;-68
2021/05/14 00:51:49;;;;;;;1.30;1.30;;;;;;;7.97;100.00;97126.69;5002233;28;20416;-70
2021/05/14 00:54:17;;;;;;;1.47;1.47;;;;;;;7.95;100.00;97130.47;5003300;28;20213;-69
2021/05/14 00:56:44;;;;;;;1.50;1.50;;;;;;;7.96;100.00;97134.78;5003956;28;20208;-69
2021/05/14 00:59:12;;;;;;;1.40;1.40;;;;;;;8.00;100.00;97128.16;5003025;28;20233;-66
2021/05/14 01:01:40;;;;;;;1.50;1.33;;;;;;;7.94;100.00;97124.38;5003881;28;20239;-69
2021/05/14 01:04:08;;;;;;;1.40;1.40;;;;;;;8.00;100.00;97130.00;5003997;28;20640;-68
2021/05/14 01:06:35;;;;;;;1.70;1.60;;;;;;;7.91;100.00;97121.25;5000652;28;20609;-68
2021/05/14 01:09:03;;;;;;;1.87;1.60;;;;;;;7.86;100.00;97126.22;5003162;28;20205;-68
2021/05/14 01:11:31;;;;;;;1.73;1.70;;;;;;;7.87;100.00;97125.22;5003135;28;20248;-69
2021/05/14 01:13:59;;;;;;;1.60;1.50;;;;;;;7.87;100.00;97123.41;5002435;28;20205;-67
2021/05/14 01:16:26;;;;;;;1.50;1.47;;;;;;;7.85;100.00;97121.94;5001824;28;20216;-70
2021/05/14 01:18:55;;;;;;;1.20;1.20;;;;;;;7.89;100.00;97125.88;5003254;28;20225;-67
2021/05/14 01:21:23;;;;;;;1.30;1.30;;;;;;;7.86;100.00;97118.31;5001771;28;20355;-68
2021/05/14 01:23:51;;;;;;;1.23;1.23;;;;;;;7.85;100.00;97122.75;5002830;28;20391;-68
2021/05/14 01:26:20;;;;;;;1.60;1.57;;;;;;;7.80;100.00;97123.28;5003794;28;20213;-68
2021/05/14 01:28:47;;;;;;;2.03;1.90;;;;;;;7.79;100.00;97118.16;5003190;28;20200;-68
2021/05/14 01:31:16;;;;;;;1.50;1.50;;;;;;;7.85;100.00;97120.13;5002153;28;20263;-68
2021/05/14 01:33:44;;;;;;;1.40;1.40;;;;;;;7.75;100.00;97117.66;5003606;28;20237;-68
2021/05/14 01:36:12;;;;;;;1.50;1.40;;;;;;;7.75;100.00;97114.22;5003510;28;21551;-70
2021/05/14 01:38:41;;;;;;;1.60;1.57;;;;;;;7.74;100.00;97117.84;5001823;28;20704;-69
2021/05/14 01:41:08;;;;;;;1.40;1.30;;;;;;;7.68;100.00;97119.31;5002965;28;20239;-69
2021/05/14 01:43:36;;;;;;;1.40;1.30;;;;;;;7.60;100.00;97121.97;5000367;28;20205;-68
2021/05/14 01:46:05;;;;;;;1.80;1.70;;;;;;;7.64;100.00;97120.66;5003009;28;20319;-68
2021/05/14 01:48:33;;;;;;;1.60;1.60;;;;;;;7.65;100.00;97114.38;5003286;28;20497;-68
2021/05/14 01:51:04;;;;;;;1.47;1.47;;;;;;;7.71;100.00;97116.34;5002531;28;20225;-68
2021/05/14 01:53:31;;;;;;;1.80;1.70;;;;;;;7.60;100.00;97111.41;5002489;28;20204;-69
2021/05/14 01:55:59;;;;;;;1.33;1.33;;;;;;;7.61;100.00;97110.44;5000598;28;20216;-68
2021/05/14 01:58:27;;;;;;;1.83;1.73;;;;;;;7.55;100.00;97119.81;5003057;28;20244;-67
2021/05/14 02:00:54;;;;;;;1.20;1.20;;;;;;;7.57;100.00;97115.19;5001664;28;20255;-69
2021/05/14 02:03:22;;;;;;;1.30;1.30;;;;;;;7.72;100.00;97112.72;5002958;28;20213;-68
2021/05/14 02:05:49;;;;;;;2.03;1.80;;;;;;;7.59;100.00;97120.31;5001525;28;20201;-68
2021/05/14 02:08:17;;;;;;;1.43;1.43;;;;;;;7.57;100.00;97122.31;5002623;28;20204;-68
2021/05/14 02:10:44;;;;;;;1.53;1.53;;;;;;;7.54;100.00;97123.44;4999502;28;20259;-69
2021/05/14 02:13:13;;;;;;;1.60;1.60;;;;;;;7.50;100.00;97125.59;5002658;28;20240;-65
2021/05/14 02:15:41;;;;;;;1.80;1.70;;;;;;;7.59;100.00;97123.81;5002952;28;20205;-68
2021/05/14 02:18:09;;;;;;;1.50;1.50;;;;;;;7.60;100.00;97112.25;5002605;28;20209;-70
2021/05/14 02:20:36;;;;;;;1.40;1.40;;;;;;;7.67;100.00;97115.03;5000903;28;20221;-67
2021/05/14 02:23:04;;;;;;;1.50;1.40;;;;;;;7.62;100.00;97115.56;5002134;28;20213;-68
2021/05/14 02:25:31;;;;;;;2.03;1.93;;;;;;;7.70;100.00;97113.88;5002216;28;20213;-69
2021/05/14 02:27:59;;;;;;;1.50;1.50;;;;;;;7.70;100.00;97117.34;5003152;28;20209;-69
2021/05/14 02:30:27;;;;;;;1.30;1.30;;;;;;;7.68;100.00;97112.25;5001655;28;20251;-68
2021/05/14 02:32:54;;;;;;;1.47;1.43;;;;;;;7.67;100.00;97110.59;5002423;28;20284;-68
2021/05/14 02:35:22;;;;;;;1.73;1.63;;;;;;;7.74;100.00;97110.72;5002153;28;20224;-70
2021/05/14 02:37:49;;;;;;;1.73;1.73;;;;;;;7.72;100.00;97107.44;4999511;28;20212;-68
2021/05/14 02:40:17;;;;;;;2.00;1.80;;;;;;;7.64;100.00;97112.72;4999929;28;20235;-67
2021/05/14 02:42:44;;;;;;;1.80;1.70;;;;;;;7.61;100.00;97119.19;5002713;28;20573;-67
2021/05/14 02:45:13;;;;;;;1.53;1.43;;;;;;;7.59;100.00;97115.06;5002262;28;20699;-66
2021/05/14 02:47:42;;;;;;;1.63;1.60;;;;;;;7.65;100.00;97117.00;4999969;28;20201;-69
2021/05/14 02:50:10;;;;;;;1.60;1.60;;;;;;;7.80;100.00;97109.25;5001258;28;20215;-69
2021/05/14 02:52:38;;;;;;;1.43;1.33;;;;;;;7.66;100.00;97106.31;4998886;28;20204;-68
2021/05/14 02:55:06;;;;;;;2.83;1.60;;;;;;;7.67;100.00;97107.13;5002479;28;20208;-68
2021/05/14 02:57:34;;;;;;;1.87;1.83;;;;;;;7.85;100.00;97106.13;5005261;28;20524;-68
2021/05/14 03:00:01;;;;;;;1.30;1.30;;;;;;;7.85;100.00;97103.47;5005586;28;20243;-67
2021/05/14 03:02:29;;;;;;;1.47;1.47;;;;;;;7.73;100.00;97111.72;5004890;28;20225;-68
2021/05/14 03:04:57;;;;;;;1.87;1.77;;;;;;;7.74;100.00;97113.38;5001508;28;20216;-68
2021/05/14 03:07:25;;;;;;;1.53;1.53;;;;;;;7.74;100.00;97113.38;5005851;28;20208;-67
2021/05/14 03:09:52;;;;;;;1.60;1.60;;;;;;;7.76;100.00;97121.13;5006235;28;20690;-69
2021/05/14 03:12:20;;;;;;;1.63;1.60;;;;;;;7.72;100.00;97112.72;5003821;28;20729;-70
2021/05/14 03:14:48;;;;;;;1.60;1.60;;;;;;;7.71;100.00;97113.72;5005580;28;20204;-65
2021/05/14 03:17:15;;;;;;;2.63;1.70;;;;;;;7.70;100.00;97111.25;5006445;28;20295;-68
2021/05/14 03:19:43;;;;;;;1.37;1.37;;;;;;;7.69;100.00;97115.69;5004695;28;20283;-69
2021/05/14 03:22:11;;;;;;;2.00;1.70;;;;;;;7.67;100.00;97118.50;5004592;28;20233;-68
2021/05/14 03:24:39;;;;;;;2.00;1.90;;;;;;;7.60;100.00;97121.97;5005041;28;20217;-69
2021/05/14 03:27:06;;;;;;;1.30;1.30;;;;;;;7.62;100.00;97131.38;5005568;28;20205;-67
2021/05/14 03:29:34;;;;;;;1.57;1.57;;;;;;;7.64;100.00;97126.75;5003775;28;20610;-70
2021/05/14 03:32:03;;;;;;;1.43;1.43;;;;;;;7.84;100.00;97130.84;5004702;28;20229;-67
2021/05/14 03:34:31;;;;;;;1.70;1.60;;;;;;;7.69;100.00;97120.97;5002618;28;20292;-70
2021/05/14 03:36:59;;;;;;;1.80;1.70;;;;;;;7.80;100.00;97123.28;5006676;28;20218;-67
2021/05/14 03:39:27;;;;;;;1.50;1.50;;;;;;;7.76;100.00;97124.56;5004101;28;20339;-67
2021/05/14 03:42:06;;;;;;;1.40;1.40;;;;;;;7.71;100.00;97126.91;5006563;28;20547;-66
2021/05/14 03:44:34;;;;;;;1.93;1.63;;;;;;;7.76;100.00;97123.75;5002876;28;20205;-67
2021/05/14 03:47:03;;;;;;;2.40;1.53;;;;;;;7.75;100.00;97128.19;5002527;28;20208;-66
2021/05/14 03:49:31;;;;;;;2.73;1.53;;;;;;;7.78;100.00;97127.06;5003800;28;20205;-66
2021/05/14 03:51:59;;;;;;;1.80;1.53;;;;;;;7.73;100.00;97127.53;5004700;28;20734;-69
2021/05/14 03:54:28;;;;;;;1.53;1.53;;;;;;;7.72;100.00;97128.53;5004607;28;20242;-65
2021/05/14 03:56:56;;;;;;;1.80;1.70;;;;;;;7.77;100.00;97135.97;5009229;28;20228;-68
2021/05/14 03:59:23;;;;;;;2.27;2.17;;;;;;;7.70;100.00;97142.91;5003604;28;20217;-68
2021/05/14 04:01:51;;;;;;;1.90;1.80;;;;;;;7.72;100.00;97130.38;5003175;28;20237;-66
2021/05/14 04:04:20;;;;;;;1.50;1.50;;;;;;;7.72;100.00;97131.19;5002592;28;20312;-69
2021/05/14 04:06:48;;;;;;;1.97;1.87;;;;;;;7.76;100.00;97135.13;5001404;28;20209;-68
2021/05/14 04:09:19;;;;;;;2.33;1.63;;;;;;;7.79;100.00;97136.63;5002765;28;20593;-68
2021/05/14 04:12:15;;;;;;;1.60;1.60;;;;;;;7.79;100.00;97134.81;5003314;28;20228;-71
2021/05/14 04:14:42;;;;;;;1.70;1.60;;;;;;;7.81;100.00;97139.91;5004491;28;20209;-68
2021/05/14 04:17:25;;;;;;;1.47;1.37;;;;;;;7.84;100.00;97134.28;5002243;28;20601;-68
2021/05/14 04:19:52;;;;;;;1.87;1.77;;;;;;;7.92;100.00;97142.19;5004175;28;20341;-71
2021/05/14 04:22:20;;;;;;;1.70;1.67;;;;;;;7.91;100.00;97137.09;5004107;28;20247;-69
2021/05/14 04:24:47;;;;;;;2.30;2.13;;;;;;;7.92;100.00;97139.53;5002684;28;20320;-68
2021/05/14 04:27:15;;;;;;;2.07;1.97;;;;;;;7.93;100.00;97146.47;5002541;28;20221;-67
2021/05/14 04:29:43;;;;;;;1.60;1.50;;;;;;;8.08;100.00;97140.53;5005651;28;20197;-70
2021/05/14 04:32:11;;;;;;;1.47;1.47;;;;;;;8.03;100.00;97138.38;5003134;28;20252;-70
2021/05/14 04:34:39;;;;;;;1.90;1.80;;;;;;;8.07;100.00;97142.31;5003066;28;20201;-70
2021/05/14 04:37:07;;;;;;;2.13;1.70;;;;;;;8.05;100.00;97149.59;5003925;28;20215;-70
2021/05/14 04:39:34;;;;;;;1.70;1.60;;;;;;;8.07;100.00;97137.03;5002308;28;20590;-69
2021/05/14 04:42:02;;;;;;;1.83;1.73;;;;;;;8.08;100.00;97145.78;5003142;28;20225;-70
2021/05/14 04:44:31;;;;;;;2.63;2.20;;;;;;;8.10;100.00;97144.63;5003526;28;20208;-69
2021/05/14 04:46:58;;;;;;;1.93;1.40;;;;;;;8.19;100.00;97147.25;5000685;28;20212;-68
2021/05/14 04:49:26;;;;;;;1.50;1.50;;;;;;;8.18;100.00;97145.63;5001816;28;20300;-68
2021/05/14 04:51:54;;;;;;;2.17;1.97;;;;;;;8.19;100.00;97149.91;5003169;28;20221;-71
2021/05/14 04:54:22;;;;;;;1.80;1.70;;;;;;;8.18;100.00;97148.25;5003609;28;20291;-69
2021/05/14 04:56:49;;;;;;;1.67;1.57;;;;;;;8.25;100.00;97147.38;5000285;28;20209;-68
2021/05/14 04:59:17;;;;;;;1.70;1.60;;;;;;;8.29;100.00;97147.03;5000909;28;20656;-70
2021/05/14 05:01:45;;;;;;;1.80;1.70;;;;;;;8.26;100.00;97153.50;5003030;28;20791;-68
2021/05/14 05:04:16;;;;;;;1.57;1.47;;;;;;;8.25;100.00;97151.84;5003142;28;20205;-70
2021/05/14 05:06:44;;;;;;;1.70;1.60;;;;;;;8.30;100.00;97152.16;4999361;28;20208;-69
2021/05/14 05:09:11;;;;;;;2.13;1.23;;;;;;;8.42;100.00;97149.16;5001142;28;20209;-71
2021/05/14 05:11:39;;;;;;;1.70;1.60;;;;;;;8.47;100.00;97145.00;5002985;28;20487;-70
2021/05/14 05:14:06;;;;;;;1.73;1.60;;;;;;;8.37;100.00;97152.31;5003346;28;20719;-70
2021/05/14 05:16:34;;;;;;;1.50;1.40;;;;;;;8.37;100.00;97157.59;4998169;28;20207;-70
2021/05/14 05:19:02;;;;;;;1.50;1.50;;;;;;;8.52;100.00;97149.78;5001745;28;20620;-70
2021/05/14 05:21:30;;;;;;;1.20;1.20;;;;;;;8.57;99.73;97154.56;5002876;28;20228;-68
2021/05/14 05:23:57;;;;;;;2.00;1.53;;;;;;;8.46;98.93;97153.91;5003674;28;20216;-69
2021/05/14 05:26:27;;;;;;;1.30;1.30;;;;;;;8.47;100.00;97155.56;5003120;28;20209;-70
2021/05/14 05:28:54;;;;;;;1.60;1.50;;;;;;;8.55;98.05;97160.03;5003766;28;20209;-69
2021/05/14 05:31:21;;;;;;;1.70;1.60;;;;;;;8.61;99.81;97156.69;5002518;28;20224;-69
2021/05/14 05:33:50;;;;;;;1.53;1.43;;;;;;;8.63;99.17;97159.16;5004204;28;20263;-71
2021/05/14 05:36:18;;;;;;;1.63;1.53;;;;;;;8.58;98.53;97172.91;5000085;28;20582;-69
2021/05/14 05:38:47;;;;;;;1.57;1.50;;;;;;;8.74;98.35;97160.59;4999193;28;20665;-70
2021/05/14 05:41:16;;;;;;;1.47;1.40;;;;;;;8.67;97.27;97160.44;5000631;28;20640;-69
2021/05/14 05:43:43;;;;;;;1.73;1.63;;;;;;;8.72;97.63;97168.72;5002569;28;20393;-69
2021/05/14 05:46:11;;;;;;;2.13;1.67;;;;;;;8.74;97.73;97164.06;5002783;28;20208;-69
2021/05/14 05:48:39;;;;;;;1.70;1.60;;;;;;;8.67;97.08;97166.56;5000185;28;20260;-70
2021/05/14 05:51:09;;;;;;;1.50;1.40;;;;;;;8.56;97.31;97163.47;5002831;28;20544;-68
2021/05/14 05:53:37;;;;;;;1.30;1.30;;;;;;;8.60;97.69;97162.13;5003482;28;20216;-70
2021/05/14 05:56:05;;;;;;;1.53;1.43;;;;;;;8.66;96.66;97169.38;5002177;28;20220;-70
2021/05/14 05:58:33;;;;;;;2.43;2.33;;;;;;;8.66;98.51;97166.72;5001805;28;20590;-70
2021/05/14 06:01:00;;;;;;;1.63;1.40;;;;;;;8.55;97.52;97173.25;5001883;28;20236;-69
2021/05/14 06:03:27;;;;;;;1.60;1.50;;;;;;;8.54;98.01;97185.59;5002098;28;20224;-68
2021/05/14 06:05:56;;;;;;;1.20;1.10;;;;;;;8.60;97.15;97172.69;5001753;28;20220;-69
2021/05/14 06:08:24;;;;;;;1.80;1.60;;;;;;;8.72;96.98;97184.56;5003873;28;20243;-70
2021/05/14 06:10:54;;;;;;;1.17;1.17;;;;;;;8.89;97.15;97184.47;5001601;28;20229;-70
2021/05/14 06:13:21;;;;;;;1.60;1.27;;;;;;;9.04;95.84;97180.06;4999757;28;20374;-71
2021/05/14 06:15:51;;;;;;;1.50;1.40;;;;;;;9.20;93.46;97188.91;5002800;28;20582;-69
2021/05/14 06:18:20;;;;;;;3.53;1.23;;;;;;;9.17;94.53;97183.97;5000286;28;20231;-69
2021/05/14 06:20:48;;;;;;;1.80;1.20;;;;;;;9.33;94.63;97178.56;4999398;28;20229;-72
2021/05/14 06:23:16;;;;;;;1.83;1.73;;;;;;;9.48;93.23;97183.13;4999161;28;20577;-71
2021/05/14 06:25:43;;;;;;;1.37;1.27;;;;;;;9.76;91.54;97187.84;4998667;28;20208;-70
2021/05/14 06:28:17;;;;;;;1.50;1.47;;;;;;;9.88;90.62;97182.94;5002134;28;20215;-69
2021/05/14 06:30:45;;;;;;;1.50;1.40;;;;;;;9.85;88.00;97184.13;5001862;28;20219;-68
2021/05/14 06:33:12;;;;;;;1.20;1.10;;;;;;;9.93;88.87;97184.06;5007074;28;20205;-68
2021/05/14 06:35:41;;;;;;;3.13;1.30;;;;;;;10.05;87.91;97195.03;5006263;28;20224;-68
2021/05/14 06:38:08;;;;;;;2.33;1.27;;;;;;;10.05;86.99;97189.75;5006255;28;20502;-69
2021/05/14 06:40:36;;;;;;;1.87;1.30;;;;;;;10.14;86.73;97177.22;5006384;28;20251;-66
2021/05/14 06:43:03;;;;;;;1.50;1.17;;;;;;;10.30;85.00;97181.53;5006208;28;20201;-68
2021/05/14 06:45:32;;;;;;;0.90;0.90;;;;;;;10.57;83.74;97189.88;5005926;28;20205;-70
2021/05/14 06:48:03;;;;;;;1.10;1.10;;;;;;;10.73;80.58;97183.56;5005307;28;20219;-70
2021/05/14 06:50:31;;;;;;;1.10;1.00;;;;;;;10.67;80.63;97192.25;5005597;28;20225;-70
2021/05/14 06:52:59;;;;;;;1.30;1.30;;;;;;;10.70;78.79;97199.81;5005690;28;20345;-71
2021/05/14 06:55:26;;;;;;;1.30;1.13;;;;;;;10.70;79.18;97200.63;5003378;28;20236;-70
2021/05/14 06:57:54;;;;;;;1.27;1.17;;;;;;;10.81;78.45;97198.53;5005574;28;20208;-69
2021/05/14 07:00:21;;;;;;;0.93;0.93;;;;;;;10.87;78.27;97197.81;5004135;28;20228;-72
2021/05/14 07:02:50;;;;;;;1.70;1.60;;;;;;;10.91;77.36;97192.94;5005476;28;20262;-71
2021/05/14 07:05:18;;;;;;;0.90;0.83;;;;;;;11.05;77.58;97204.50;5002762;28;20209;-68
2021/05/14 07:07:45;;;;;;;1.67;1.57;;;;;;;11.20;76.94;97201.81;5006309;28;20566;-70
2021/05/14 07:10:13;;;;;;;1.43;1.33;;;;;;;11.32;75.17;97208.28;5005327;28;20581;-67
2021/05/14 07:12:40;;;;;;;1.53;1.10;;;;;;;11.27;75.07;97208.03;5005205;28;20211;-71
2021/05/14 07:15:09;;;;;;;2.80;1.20;;;;;;;11.48;74.88;97204.56;5006298;28;20209;-68
2021/05/14 07:17:37;;;;;;;1.77;1.53;;;;;;;11.55;74.74;97205.47;5004547;28;20205;-69
2021/05/14 07:20:07;;;;;;;1.57;1.40;;;;;;;11.77;73.82;97201.97;5003819;28;20241;-67
2021/05/14 07:22:35;;;;;;;1.20;1.10;;;;;;;11.82;74.52;97208.34;5002266;28;20232;-68
2021/05/14 07:25:03;;;;;;;1.20;1.20;;;;;;;11.99;74.35;97216.06;5001824;28;20237;-67
2021/05/14 07:27:31;;;;;;;0.97;0.93;;;;;;;12.05;71.75;97220.63;5001336;28;20205;-70
2021/05/14 07:29:59;;;;;;;1.20;1.20;;;;;;;11.86;72.81;97214.91;5004370;28;20205;-69
2021/05/14 07:32:27;;;;;;;1.40;1.30;;;;;;;12.03;73.87;97220.00;5004264;28;20227;-71
2021/05/14 07:34:55;;;;;;;1.03;1.03;;;;;;;11.99;71.25;97210.75;5003778;28;20351;-72
2021/05/14 07:37:24;;;;;;;1.23;1.20;;;;;;;12.39;69.34;97207.56;5000419;28;20296;-71
2021/05/14 07:39:53;;;;;;;0.97;0.97;;;;;;;12.35;70.89;97209.81;5001524;28;20215;-71
2021/05/14 07:42:20;;;;;;;3.00;1.30;;;;;;;12.32;74.20;97206.69;5006242;28;20476;-71
2021/05/14 07:44:48;;;;;;;1.07;0.97;;;;;;;12.61;71.78;97212.81;4998367;28;20205;-71
2021/05/14 07:47:15;;;;;;;1.30;1.30;;;;;;;12.44;68.76;97219.25;5001913;28;20212;-71
2021/05/14 07:49:43;;;;;;;2.27;1.20;;;;;;;12.29;69.38;97218.53;5003154;28;20299;-73
2021/05/14 07:52:11;;;;;;;1.63;1.53;;;;;;;12.21;67.82;97213.38;5002659;28;20411;-72
2021/05/14 07:54:39;;;;;;;1.10;0.87;;;;;;;12.48;66.97;97211.69;5002488;28;20204;-72
2021/05/14 07:57:07;;;;;;;1.40;0.97;;;;;;;12.68;66.84;97216.31;5003857;28;20232;-71
2021/05/14 07:59:35;;;;;;;1.80;1.20;;;;;;;12.49;66.30;97220.50;5002305;28;20232;-72
2021/05/14 08:02:03;;;;;;;1.10;1.00;;;;;;;12.61;66.97;97220.78;5001722;28;20231;-70
2021/05/14 08:04:30;;;;;;;1.00;1.00;;;;;;;12.77;65.72;97215.13;5001529;28;20212;-69
2021/05/14 08:06:57;;;;;;;2.07;1.17;;;;;;;13.08;63.37;97215.69;5001113;28;20209;-70
2021/05/14 08:09:26;;;;;;;1.10;1.10;;;;;;;13.08;61.95;97221.00;5002874;28;20589;-69
2021/05/14 08:11:54;;;;;;;1.60;1.13;;;;;;;13.13;62.91;97222.03;4994825;28;20380;-71
2021/05/14 08:14:22;;;;;;;1.57;1.37;;;;;;;13.29;62.53;97217.38;5004050;28;20201;-70
2021/05/14 08:16:50;;;;;;;1.93;1.20;;;;;;;13.63;62.46;97220.13;5000862;28;20211;-71
2021/05/14 08:19:18;;;;;;;1.00;0.90;;;;;;;13.78;61.92;97217.28;5004494;28;20216;-72
2021/05/14 08:21:46;;;;;;;0.83;0.83;;;;;;;14.27;59.44;97217.91;5001312;28;20243;-68
2021/05/14 08:24:13;;;;;;;0.93;0.80;;;;;;;14.15;59.60;97215.84;5004495;28;20205;-71
2021/05/14 08:26:41;;;;;;;0.70;0.70;;;;;;;13.89;58.31;97225.50;5002438;28;20393;-70
2021/05/14 08:29:11;;;;;;;0.60;0.60;;;;;;;13.85;60.04;97229.59;5003021;28;20213;-69
2021/05/14 08:31:39;;;;;;;0.60;0.60;;;;;;;13.98;57.94;97219.97;5003018;28;20225;-69
2021/05/14 08:34:08;;;;;;;1.47;0.80;;;;;;;13.70;59.38;97220.97;5004628;28;20259;-69
2021/05/14 08:36:36;;;;;;;0.90;0.90;;;;;;;13.77;58.16;97215.66;5001905;28;20209;-69
2021/05/14 08:39:04;;;;;;;1.90;1.03;;;;;;;14.30;59.54;97223.63;5003660;28;20211;-69
2021/05/14 08:41:34;;;;;;;0.60;0.60;;;;;;;14.14;57.21;97216.88;5003394;28;20627;-69
2021/05/14 08:44:01;;;;;;;2.47;0.73;;;;;;;14.07;59.53;97213.41;5001706;28;20239;-68
2021/05/14 08:46:30;;;;;;;1.07;0.97;;;;;;;14.01;57.88;97215.03;5002901;28;20906;-71
2021/05/14 08:49:07;;;;;;;0.73;0.73;;;;;;;14.15;58.26;97217.72;5002488;28;20218;-70
2021/05/14 08:51:35;;;;;;;0.90;0.90;;;;;;;13.94;58.55;97218.75;5002997;28;20221;-69
2021/05/14 08:54:05;;;;;;;0.90;0.90;;;;;;;13.59;59.56;97217.88;5003438;28;20288;-70
2021/05/14 08:56:33;;;;;;;1.20;1.00;;;;;;;13.43;60.54;97226.22;5002312;28;20201;-71
2021/05/14 08:59:01;;;;;;;0.60;0.60;;;;;;;13.63;58.56;97226.28;5002493;28;20614;-71
2021/05/14 09:01:32;;;;;;;0.87;0.87;;;;;;;13.97;59.30;97221.00;4999871;28;20721;-71
2021/05/14 09:04:01;;;;;;;1.07;0.90;;;;;;;14.28;57.40;97216.88;5001046;28;20216;-70
2021/05/14 09:06:30;;;;;;;1.57;0.93;;;;;;;14.58;56.04;97232.41;5002196;28;20299;-69
2021/05/14 09:09:00;;;;;;;1.03;0.60;;;;;;;14.38;54.25;97219.94;5002488;28;20205;-72
2021/05/14 09:11:38;;;;;;;1.30;0.90;;;;;;;14.57;54.84;97223.59;5003191;28;20653;-69
2021/05/14 09:14:08;;;;;;;0.80;0.80;;;;;;;14.48;56.34;97224.84;4999112;28;20235;-69
2021/05/14 09:16:44;;;;;;;0.83;0.60;;;;;;;14.59;54.75;97226.88;5001887;28;20235;-69
2021/05/14 09:19:12;;;;;;;0.50;0.50;;;;;;;14.73;55.88;97214.34;5000322;28;20303;-72
2021/05/14 09:21:44;;;;;;;1.03;0.93;;;;;;;14.72;56.15;97219.88;5002917;28;20233;-72
2021/05/14 09:24:11;;;;;;;0.90;0.90;;;;;;;14.53;56.07;97219.72;5001785;28;20248;-71
2021/05/14 09:26:40;;;;;;;0.60;0.60;;;;;;;14.85;54.48;97221.69;5003686;28;20284;-68
2021/05/14 09:29:37;;;;;;;0.70;0.70;;;;;;;15.17;53.63;97227.94;5001862;28;20288;-71
2021/05/14 09:32:21;;;;;;;2.70;1.10;;;;;;;14.93;54.73;97228.66;5003220;28;20236;-68
2021/05/14 09:34:50;;;;;;;0.73;0.73;;;;;;;14.50;55.82;97225.47;5000167;28;20385;-69
2021/05/14 09:37:18;;;;;;;1.30;0.83;;;;;;;14.84;54.66;97225.38;4996821;28;20259;-70
2021/05/14 09:39:45;;;;;;;0.80;0.80;;;;;;;14.99;54.39;97220.63;5000183;28;20799;-72
2021/05/14 09:42:13;;;;;;;0.63;0.63;;;;;;;15.21;54.49;97214.97;5003045;28;20704;-69
2021/05/14 09:44:40;;;;;;;0.60;0.60;;;;;;;15.37;53.97;97223.53;5003042;28;20558;-71
2021/05/14 09:47:08;;;;;;;0.73;0.60;;;;;;;15.50;52.44;97223.47;5001082;28;20209;-69
2021/05/14 09:49:36;;;;;;;0.87;0.83;;;;;;;15.40;52.49;97223.91;5000816;28;20713;-71
2021/05/14 09:52:06;;;;;;;0.57;0.57;;;;;;;15.47;53.17;97221.22;5000284;28;20231;-71
2021/05/14 09:54:40;;;;;;;1.70;0.60;;;;;;;15.14;53.23;97225.69;5001582;28;20679;-71
2021/05/14 09:57:30;;;;;;;0.70;0.70;;;;;;;15.18;51.92;97232.25;5004437;28;20267;-71
2021/05/14 10:00:00;;;;;;;0.60;0.60;;;;;;;15.13;54.22;97218.69;4997995;28;20213;-73
2021/05/14 10:02:30;;;;;;;0.77;0.73;;;;;;;15.31;54.37;97217.19;4999619;28;20236;-71
2021/05/14 10:04:59;;;;;;;1.00;0.60;;;;;;;15.61;51.40;97214.75;4998439;28;20216;-72
2021/05/14 10:07:29;;;;;;;0.87;0.63;;;;;;;15.56;51.81;97217.25;4998940;28;20859;-70
2021/05/14 10:09:58;;;;;;;1.17;0.93;;;;;;;15.38;52.63;97217.16;5002643;28;20228;-71
2021/05/14 10:12:26;;;;;;;0.70;0.70;;;;;;;15.43;52.25;97220.81;5002956;28;20588;-71
2021/05/14 10:14:57;;;;;;;1.00;0.97;;;;;;;15.86;49.69;97215.81;4999328;28;20201;-69
2021/05/14 10:17:26;;;;;;;0.67;0.67;;;;;;;15.22;53.28;97216.63;4998365;28;20603;-70
2021/05/14 10:19:55;;;;;;;0.70;0.70;;;;;;;15.24;53.29;97222.56;5001518;28;20208;-69
2021/05/14 10:22:26;;;;;;;0.60;0.60;;;;;;;15.25;53.51;97231.41;5001455;28;20365;-71
2021/05/14 10:24:58;;;;;;;0.70;0.70;;;;;;;14.66;53.84;97220.69;5001075;28;20448;-72
2021/05/14 10:27:30;;;;;;;0.60;0.60;;;;;;;14.75;55.17;97222.97;5002510;28;20201;-68
2021/05/14 10:30:00;;;;;;;0.97;0.77;;;;;;;15.36;52.89;97221.91;5000693;28;20682;-71
2021/05/14 10:32:49;;;;;;;1.90;0.80;;;;;;;15.48;51.91;97214.84;5002356;28;20224;-70
2021/05/14 10:35:22;;;;;;;0.83;0.83;;;;;;;15.45;51.23;97224.09;5000059;28;20267;-69
2021/05/14 10:37:52;;;;;;;0.57;0.57;;;;;;;15.40;52.67;97218.56;5001258;28;20673;-69
2021/05/14 10:40:41;;;;;;;0.70;0.70;;;;;;;15.48;51.65;97218.31;4999634;28;20212;-73
2021/05/14 10:43:11;;;;;;;0.87;0.50;;;;;;;15.42;51.59;97213.84;5001362;28;20272;-71
2021/05/14 10:45:39;;;;;;;1.47;0.53;;;;;;;16.10;50.38;97216.06;4999757;28;20208;-70
2021/05/14 10:48:17;;;;;;;0.67;0.67;;;;;;;16.38;49.93;97210.25;5001438;28;20211;-70
2021/05/14 10:50:46;;;;;;;0.77;0.60;;;;;;;17.07;47.20;97214.72;5000467;28;20657;-70
2021/05/14 10:53:32;;;;;;;0.67;0.67;;;;;;;16.86;47.10;97207.94;5001183;28;20266;-69
2021/05/14 10:56:35;;;;;;;0.90;0.90;;;;;;;17.68;45.07;97213.88;5000849;28;20917;-68
2021/05/14 10:59:10;;;;;;;1.33;1.23;;;;;;;18.23;44.17;97210.97;4999035;28;20205;-71
2021/05/14 11:01:39;;;;;;;0.50;0.50;;;;;;;18.50;42.34;97209.66;5001225;28;20235;-70
2021/05/14 11:04:39;;;;;;;0.77;0.60;;;;;;;17.36;46.01;97204.22;5002182;28;20975;-71
2021/05/14 11:07:07;;;;;;;0.80;0.70;;;;;;;16.14;48.22;97202.06;5001331;28;20224;-72
2021/05/14 11:09:35;;;;;;;0.77;0.70;;;;;;;16.30;49.74;97205.19;5001932;28;20201;-70
2021/05/14 11:12:05;;;;;;;1.00;0.90;;;;;;;16.17;50.54;97201.63;5000686;28;20227;-70
2021/05/14 11:14:43;;;;;;;0.97;0.50;;;;;;;15.91;49.94;97200.81;5002393;28;20271;-70
2021/05/14 11:17:11;;;;;;;0.80;0.80;;;;;;;16.22;49.84;97200.94;5001931;28;20640;-71
2021/05/14 11:19:46;;;;;;;1.33;0.70;;;;;;;16.63;48.26;97196.84;5005257;28;20219;-70
2021/05/14 11:22:15;;;;;;;1.37;0.90;;;;;;;17.25;47.35;97202.31;5005726;28;20232;-69
2021/05/14 11:24:47;;;;;;;0.80;0.80;;;;;;;17.42;46.27;97184.56;5005810;28;20938;-69
2021/05/14 11:27:16;;;;;;;2.70;0.80;;;;;;;17.00;46.07;97198.72;5005296;28;20205;-70
2021/05/14 11:29:46;;;;;;;0.73;0.73;;;;;;;16.83;46.05;97195.81;5004871;28;20236;-71
2021/05/14 11:32:19;;;;;;;4.33;1.10;;;;;;;16.48;48.88;97202.56;5007268;28;20225;-70
2021/05/14 11:34:55;;;;;;;1.10;0.70;;;;;;;16.22;47.74;97192.94;5000717;28;20589;-70
2021/05/14 11:37:26;;;;;;;0.77;0.50;;;;;;;16.16;48.11;97196.50;5003389;28;20201;-70
2021/05/14 11:39:54;;;;;;;0.50;0.50;;;;;;;15.71;47.39;97200.09;5002314;28;20672;-69
2021/05/14 11:42:24;;;;;;;1.93;0.80;;;;;;;15.21;49.25;97203.50;5005324;28;20728;-72
2021/05/14 11:44:59;;;;;;;0.50;0.50;;;;;;;15.83;49.19;97198.38;5005101;28;20212;-70